Flight Track Log - Related Links

Times and Time Zones

All times are in EDT time to prevent confusion due to time zone crossing. See the BHR29 flight status page for this flight to view local times or setup timezone preferences in your user account.

Time Position Orientation Groundspeed Altitude Reporting Facility
EDT Latitude Longitude Course Direction KTS MPH feet Rate Location/Type
Tue 11:02:32 AM 39.5333 -104.8500 218° Southwest 153 176 6,900  Level Denver TRACON
Tue 11:03:32 AM 39.5000 -104.8833 218° Southwest 172 198 7,600 600 Climbing Denver TRACON
Tue 11:04:12 AM 39.5236 -104.9064 323° Northwest 193 222 7,900 941 Climbing Denver Center
Tue 11:05:14 AM 39.5744 -104.9383 334° Northwest 190 219 9,200 1,306 Climbing Denver Center
Tue 11:06:16 AM 39.6219 -104.9628 338° Northwest 186 214 10,600 1,210 Climbing Denver Center
Tue 11:07:18 AM 39.6867 -104.9661 358° North 212 244 11,700 968 Climbing Denver Center
Tue 11:08:20 AM 39.7478 -104.9669 359° North 218 251 12,600 871 Climbing Denver Center
Tue 11:09:22 AM 39.8042 -104.9561 North 207 238 13,500 774 Climbing Denver Center
Tue 11:10:24 AM 39.8669 -104.9519 North 207 238 14,200 871 Climbing Denver Center
Tue 11:11:26 AM 39.9292 -104.9428 North 224 258 15,300 968 Climbing Denver Center
Tue 11:12:28 AM 39.9958 -104.9336 North 222 255 16,200 774 Climbing Denver Center
Tue 11:13:30 AM 40.0589 -104.9258 North 226 260 16,900 435 Climbing Denver Center
Tue 11:14:32 AM 40.1256 -104.9178 North 237 273 17,100 629 Climbing Denver Center
Tue 11:15:34 AM 40.2006 -104.9081 North 250 288 18,200 1,016 Climbing Denver Center
Tue 11:16:36 AM 40.2706 -104.8997 North 251 289 19,200 1,016 Climbing Denver Center
Tue 11:17:38 AM 40.3519 -104.8886 North 272 313 20,300 1,016 Climbing Denver Center
Tue 11:18:40 AM 40.4275 -104.8789 North 272 313 21,300 968 Climbing Denver Center
Tue 11:19:42 AM 40.5056 -104.8692 North 282 325 22,300 968 Climbing Denver Center
Tue 11:20:44 AM 40.5878 -104.8589 North 276 318 23,300 968 Climbing Denver Center
Tue 11:21:46 AM 40.6658 -104.8483 North 279 321 24,300 968 Climbing Denver Center
Tue 11:22:48 AM 40.7444 -104.8356 North 276 318 25,300 823 Climbing Denver Center
Tue 11:23:50 AM 40.8300 -104.8239 North 277 319 26,000 339 Climbing Denver Center
Tue 11:24:52 AM 40.9036 -104.8581 341° North 295 339 26,000  Level Denver Center
Tue 11:25:54 AM 40.9800 -104.8986 338° Northwest 306 352 26,000  Level Denver Center
Tue 11:26:56 AM 41.0719 -104.9442 340° North 314 361 26,000  Level Denver Center
Tue 11:27:58 AM 41.1519 -104.9864 338° Northwest 322 371 26,000  Level Denver Center
Tue 11:29:00 AM 41.2450 -105.0347 339° North 320 368 26,000  Level Denver Center
Tue 11:30:02 AM 41.3250 -105.0756 339° North 319 367 26,000  Level Denver Center
Tue 11:31:05 AM 41.4161 -105.1225 339° North 316 364 26,000  Level Denver Center
Tue 11:32:07 AM 41.4944 -105.1653 338° Northwest 317 365 26,000  Level Denver Center
Tue 11:33:09 AM 41.5886 -105.2133 339° North 322 371 26,000  Level Denver Center
Tue 11:34:11 AM 41.6678 -105.2553 338° Northwest 320 368 26,000  Level Denver Center
Tue 11:35:13 AM 41.7544 -105.3011 338° Northwest 303 349 26,000  Level Denver Center
Tue 11:36:15 AM 41.8294 -105.3408 338° Northwest 303 349 26,000  Level Denver Center
Tue 11:37:17 AM 41.9217 -105.3906 338° Northwest 315 362 26,000  Level Denver Center
Tue 11:38:19 AM 42.0008 -105.4319 339° North 319 367 26,000  Level Denver Center
Tue 11:39:21 AM 42.0806 -105.4747 338° Northwest 321 369 26,000  Level Denver Center
Tue 11:40:23 AM 42.1714 -105.5244 338° Northwest 315 362 26,000  Level Denver Center
Tue 11:41:25 AM 42.2506 -105.5667 338° Northwest 317 365 26,000  Level Denver Center
Tue 11:42:27 AM 42.3450 -105.6172 338° Northwest 322 371 26,000  Level Denver Center
Tue 11:43:29 AM 42.4217 -105.6600 338° Northwest 317 365 26,000  Level Denver Center
Tue 11:44:31 AM 42.5169 -105.7108 339° North 326 375 26,000 -97 Level Denver Center
Tue 11:45:33 AM 42.5981 -105.7536 339° North 329 379 25,800 -339 Descending Denver Center
Tue 11:46:35 AM 42.6944 -105.8061 338° Northwest 332 382 25,300 -484 Descending Denver Center
Tue 11:47:37 AM 42.7750 -105.8494 338° Northwest 328 377 24,800 -484 Descending Denver Center
Tue 11:48:39 AM 42.8525 -105.8919 338° Northwest 317 365 24,300 -484 Descending Denver Center
Tue 11:49:41 AM 42.9433 -105.9428 338° Northwest 315 362 23,800 -484 Descending Denver Center
Tue 11:50:43 AM 43.0233 -105.9853 339° North 320 368 23,300 -532 Descending Denver Center
Tue 11:51:45 AM 43.1156 -106.0381 337° Northwest 321 369 22,700 -528 Descending Denver Center
Tue 11:52:48 AM 43.1947 -106.0808 339° North 319 367 22,200 -336 Descending Denver Center
Tue 11:53:50 AM 43.2861 -106.1319 338° Northwest 317 365 22,000 -97 Descending Denver Center
Tue 11:54:52 AM 43.3619 -106.1728 339° North 310 357 22,000  Level Denver Center
Tue 11:55:54 AM 43.4481 -106.2228 337° Northwest 302 348 22,000  Level Denver Center
Tue 11:56:56 AM 43.5239 -106.2642 338° Northwest 304 350 22,000  Level Denver Center
Tue 11:57:58 AM 43.6114 -106.3136 338° Northwest 306 352 22,000  Level Denver Center
Tue 11:58:37 AM 43.6608 -106.3433 336° Northwest 303 349 22,000  Level Salt Lake Center
Tue 11:59:39 AM 43.7364 -106.3847 338° Northwest 303 349 22,000  Level Salt Lake Center
Tue 12:00:14 PM 43.7864 -106.4128 338° Northwest 303 349 22,000 -247 Level Denver Center
Tue 12:01:16 PM 43.8617 -106.4572 337° Northwest 305 351 21,600 -435 Descending Denver Center
Tue 12:02:18 PM 43.9533 -106.5081 338° Northwest 314 361 21,100 -677 Descending Denver Center
Tue 12:03:20 PM 44.0319 -106.5514 338° Northwest 316 364 20,200 -968 Descending Denver Center
Tue 12:04:22 PM 44.1183 -106.6008 338° Northwest 303 349 19,100 -1,011 Descending Denver Center
Tue 12:04:49 PM 44.1519 -106.6211 337° Northwest 295 339 18,700 -1,011 Descending Salt Lake Center
Tue 12:05:51 PM 44.2211 -106.6600 338° Northwest 283 326 17,600 -1,065 Descending Salt Lake Center
Tue 12:06:53 PM 44.2978 -106.7042 338° Northwest 267 307 16,500 -871 Descending Salt Lake Center
Tue 12:07:55 PM 44.3594 -106.7400 337° Northwest 253 291 15,800 -871 Descending Salt Lake Center
Tue 12:08:57 PM 44.4186 -106.7744 337° Northwest 243 280 14,700 -1,355 Descending Salt Lake Center
Tue 12:09:59 PM 44.4858 -106.8122 338° Northwest 233 268 13,000 -1,500 Descending Salt Lake Center
Tue 12:11:01 PM 44.5400 -106.8397 340° North 220 253 11,600 -1,355 Descending Salt Lake Center
Tue 12:12:03 PM 44.6000 -106.8575 348° North 206 237 10,200 -1,306 Descending Salt Lake Center
Tue 12:13:05 PM 44.6478 -106.8769 344° North 196 226 8,900 -1,065 Descending Salt Lake Center
Tue 12:14:07 PM 44.7011 -106.9011 342° North 194 223 8,000 -774 Descending Salt Lake Center
Tue 12:16:11 PM 44.8008 -106.9636 336° Northwest 191 220 6,500 -484 Descending Salt Lake Center
Tue 12:17:13 PM 44.8383 -106.9908 333° Northwest 157 181 6,500  Level Salt Lake Center
Tue 12:19:00 PM 44.7667 -106.9667 170° South  Level FlightAware Approximate
Tue 12:26:00 PM 44.7692 -106.9803 170° South  Level Estimated

Login

Don't have an account? Register now (free) for customized features, flight alerts, and more!